Berens River, Canada
Current Conditions -  °F | °C
As of 9:11 PM on Saturday 20 Dec 2014 (Local Time) from CYNE Reporting Station
Haze Haze  
Wind Chill: 14°   Ceiling: 500
Heat Index: 21°   Visibility: 5mi
Dew Point: 21°   Wind: 6mph
Humidity: 100%   Direction: 190°S
Pressure: 29.84"   Gusts: NA
Location:  52.37°N, 97.03°W
Report Text: CYNE 210311Z AUTO 19005KT 5SM BR OVC005 M06/M06 A2984 RMK SLP123
Loading
Personal Weather Stations






























Interactive Weather Map New forecast layout! Learn more

10-Day Weather Forecast

Advertisements
Track Severe Weather on mobile